Time;durP1;ratioP1;P1;durP2;ratioP2;P2;SDS_P1;SDS_P2;PMS_P1;PMS_P2;Temp;Humidity;BMP_temperature;BMP_pressure;BME280_temperature;BME280_humidity;BME280_pressure;Samples;Min_cycle;Max_cycle;Signal;HPM_P1;HPM_P2
2021/01/10 00:00:33;;;;;;;;;;;2.30;99.90;;;;;;5091979;28;19924;-70
2021/01/10 00:03:00;;;;;;;;;;;2.30;99.90;;;;;;5092366;28;19931;-70
2021/01/10 00:05:29;;;;;;;;;;;2.30;99.90;;;;;;5092249;28;19958;-70
2021/01/10 00:07:55;;;;;;;;;;;2.20;99.90;;;;;;5088136;28;19924;-70
2021/01/10 00:10:22;;;;;;;;;;;2.20;99.90;;;;;;5071757;28;19970;-70
2021/01/10 00:12:48;;;;;;;;;;;2.20;99.90;;;;;;5072147;28;20002;-70
2021/01/10 00:15:15;;;;;;;;;;;2.20;99.90;;;;;;5071975;28;19924;-70
2021/01/10 00:17:43;;;;;;;;;;;2.20;99.90;;;;;;5072040;28;19959;-70
2021/01/10 00:20:11;;;;;;;;;;;2.20;99.90;;;;;;5071556;28;20411;-70
2021/01/10 00:22:37;;;;;;;;;;;2.20;99.90;;;;;;5072117;28;20034;-70
2021/01/10 00:25:04;;;;;;;;;;;2.20;99.90;;;;;;5075528;28;19936;-70
2021/01/10 00:27:30;;;;;;;;;;;2.20;99.90;;;;;;5092196;28;19935;-70
2021/01/10 00:29:56;;;;;;;;;;;2.20;99.90;;;;;;5091380;28;20304;-70
2021/01/10 00:32:22;;;;;;;;;;;2.20;99.90;;;;;;5092059;28;19924;-70
2021/01/10 00:34:48;;;;;;;;;;;2.20;99.90;;;;;;5091838;28;19931;-70
2021/01/10 00:37:17;;;;;;;;;;;2.20;99.90;;;;;;5073993;28;19925;-70
2021/01/10 00:39:43;;;;;;;;;;;2.20;99.90;;;;;;5071872;28;19925;-70
2021/01/10 00:42:10;;;;;;;;;;;2.20;99.90;;;;;;5071570;28;19970;-70
2021/01/10 00:44:36;;;;;;;;;;;2.20;99.90;;;;;;5071705;28;19928;-70
2021/01/10 00:47:03;;;;;;;;;;;2.30;99.90;;;;;;5071742;28;19924;-70
2021/01/10 00:49:29;;;;;;;;;;;2.30;99.90;;;;;;5071739;28;19931;-70
2021/01/10 00:51:55;;;;;;;;;;;2.20;99.90;;;;;;5071534;28;19924;-70
2021/01/10 00:54:22;;;;;;;;;;;2.20;99.90;;;;;;5073533;28;19924;-70
2021/01/10 00:56:48;;;;;;;;;;;2.20;99.90;;;;;;5075173;28;19925;-70
2021/01/10 00:59:14;;;;;;;;;;;2.20;99.90;;;;;;5075210;28;19924;-70
2021/01/10 01:01:40;;;;;;;;;;;2.20;99.90;;;;;;5074863;28;19924;-70
2021/01/10 01:04:06;;;;;;;;;;;2.20;99.90;;;;;;5085676;28;19931;-70
2021/01/10 01:06:32;;;;;;;;;;;2.20;99.90;;;;;;5095587;28;20308;-70
2021/01/10 01:08:58;;;;;;;;;;;2.20;99.90;;;;;;5095501;28;19924;-70
2021/01/10 01:11:28;;;;;;;;;;;2.10;99.90;;;;;;5095069;28;19931;-70
2021/01/10 01:13:55;;;;;;;;;;;2.10;99.90;;;;;;5095457;28;19924;-70
2021/01/10 01:16:21;;;;;;;;;;;2.10;99.90;;;;;;5080345;28;19929;-70
2021/01/10 01:18:46;;;;;;;;;;;2.10;99.90;;;;;;5075160;28;19986;-70
2021/01/10 01:21:14;;;;;;;;;;;2.10;99.90;;;;;;5074658;28;19924;-70
2021/01/10 01:23:40;;;;;;;;;;;2.10;99.90;;;;;;5075055;28;19934;-70
2021/01/10 01:26:06;;;;;;;;;;;2.10;99.90;;;;;;5074742;28;19925;-70
2021/01/10 01:28:33;;;;;;;;;;;2.10;99.90;;;;;;5074678;28;19931;-70
2021/01/10 01:30:59;;;;;;;;;;;2.10;99.90;;;;;;5078654;28;20490;-70
2021/01/10 01:33:25;;;;;;;;;;;2.10;99.90;;;;;;5095012;28;19931;-70
2021/01/10 01:35:51;;;;;;;;;;;2.10;99.90;;;;;;5095031;28;19935;-69
2021/01/10 01:38:17;;;;;;;;;;;2.00;99.90;;;;;;5094950;28;19924;-69
2021/01/10 01:40:43;;;;;;;;;;;2.10;99.90;;;;;;5094567;28;20034;-70
2021/01/10 01:43:09;;;;;;;;;;;2.10;99.90;;;;;;5094758;28;19993;-69
2021/01/10 01:45:36;;;;;;;;;;;2.00;99.90;;;;;;5094750;28;19924;-70
2021/01/10 01:48:04;;;;;;;;;;;2.00;99.90;;;;;;5094870;28;19924;-70
2021/01/10 01:50:30;;;;;;;;;;;2.00;99.90;;;;;;5094182;28;19924;-70
2021/01/10 01:52:56;;;;;;;;;;;2.00;99.90;;;;;;5094652;28;19985;-70
2021/01/10 01:55:22;;;;;;;;;;;2.00;99.90;;;;;;5094459;28;19936;-70
2021/01/10 01:57:48;;;;;;;;;;;2.00;99.90;;;;;;5094522;28;19931;-70
2021/01/10 02:00:14;;;;;;;;;;;2.00;99.90;;;;;;5077097;28;19924;-70
2021/01/10 02:02:43;;;;;;;;;;;2.00;99.90;;;;;;5074295;28;19928;-70
2021/01/10 02:05:10;;;;;;;;;;;2.00;99.90;;;;;;5078501;28;19954;-70
2021/01/10 02:07:40;;;;;;;;;;;2.00;99.90;;;;;;5094305;28;19924;-70
2021/01/10 02:10:07;;;;;;;;;;;2.00;99.90;;;;;;5089379;28;19928;-70
2021/01/10 02:12:34;;;;;;;;;;;2.00;99.90;;;;;;5074075;28;19931;-70
2021/01/10 02:15:01;;;;;;;;;;;2.00;99.90;;;;;;5074099;28;19936;-70
2021/01/10 02:17:28;;;;;;;;;;;2.10;99.90;;;;;;5073958;28;19970;-70
2021/01/10 02:19:58;;;;;;;;;;;2.10;99.90;;;;;;5073534;28;19924;-70
2021/01/10 02:22:25;;;;;;;;;;;2.10;99.90;;;;;;5073701;28;19928;-70
2021/01/10 02:24:52;;;;;;;;;;;2.10;99.90;;;;;;5078457;28;19932;-70
2021/01/10 02:27:19;;;;;;;;;;;2.10;99.90;;;;;;5081787;28;19978;-70
2021/01/10 02:29:45;;;;;;;;;;;2.10;99.90;;;;;;5088874;28;19924;-70
2021/01/10 02:32:11;;;;;;;;;;;2.10;99.90;;;;;;5093711;28;19924;-68
2021/01/10 02:34:39;;;;;;;;;;;2.00;99.90;;;;;;5093811;28;20407;-70
2021/01/10 02:37:09;;;;;;;;;;;2.10;99.90;;;;;;5093583;28;19931;-70
2021/01/10 02:39:39;;;;;;;;;;;2.10;99.90;;;;;;5093581;28;19924;-70
2021/01/10 02:42:09;;;;;;;;;;;2.10;99.90;;;;;;5086261;28;19924;-70
2021/01/10 02:44:37;;;;;;;;;;;2.20;99.90;;;;;;5073354;28;19925;-70
2021/01/10 02:47:03;;;;;;;;;;;2.10;99.90;;;;;;5073520;28;20309;-70
2021/01/10 02:49:29;;;;;;;;;;;2.10;99.90;;;;;;5074295;28;19936;-70
2021/01/10 02:51:55;;;;;;;;;;;2.10;99.90;;;;;;5073055;28;19932;-70
2021/01/10 02:54:21;;;;;;;;;;;2.10;99.90;;;;;;5092857;28;19954;-70
2021/01/10 02:56:49;;;;;;;;;;;2.00;99.90;;;;;;5093121;28;19932;-70
2021/01/10 02:59:18;;;;;;;;;;;2.00;99.90;;;;;;5093352;28;19928;-70
2021/01/10 03:01:45;;;;;;;;;;;2.00;99.90;;;;;;5092815;28;19925;-70
2021/01/10 03:04:11;;;;;;;;;;;2.00;99.90;;;;;;5093572;28;20005;-70
2021/01/10 03:06:39;;;;;;;;;;;2.00;99.90;;;;;;5092705;28;21160;-69
2021/01/10 03:09:05;;;;;;;;;;;2.00;99.90;;;;;;5093023;28;19953;-70
2021/01/10 03:11:31;;;;;;;;;;;1.90;99.90;;;;;;5092544;28;19981;-70
2021/01/10 03:13:57;;;;;;;;;;;2.00;99.90;;;;;;5093121;28;19924;-70
2021/01/10 03:16:24;;;;;;;;;;;1.90;99.90;;;;;;5092177;28;19924;-70
2021/01/10 03:18:50;;;;;;;;;;;2.00;99.90;;;;;;5092857;28;20368;-70
2021/01/10 03:21:18;;;;;;;;;;;1.90;99.90;;;;;;5079140;28;19977;-70
2021/01/10 03:23:44;;;;;;;;;;;1.90;99.90;;;;;;5072676;28;19938;-69
2021/01/10 03:26:10;;;;;;;;;;;1.90;99.90;;;;;;5072638;28;20550;-69
2021/01/10 03:28:36;;;;;;;;;;;1.80;99.90;;;;;;5072590;28;19929;-70
2021/01/10 03:31:02;;;;;;;;;;;1.80;99.90;;;;;;5072083;28;20317;-70
2021/01/10 03:33:29;;;;;;;;;;;1.80;99.90;;;;;;5072855;28;20568;-70
2021/01/10 03:35:55;;;;;;;;;;;1.80;99.90;;;;;;5072472;28;19925;-70
2021/01/10 03:38:21;;;;;;;;;;;1.80;99.90;;;;;;5072508;28;19928;-70
2021/01/10 03:40:47;;;;;;;;;;;1.80;99.90;;;;;;5072223;28;20273;-70
2021/01/10 03:43:13;;;;;;;;;;;1.80;99.90;;;;;;5072340;28;19928;-70
2021/01/10 03:45:39;;;;;;;;;;;1.80;99.90;;;;;;5082966;28;19924;-70
2021/01/10 03:48:05;;;;;;;;;;;1.80;99.90;;;;;;5092380;28;19924;-70
2021/01/10 03:50:32;;;;;;;;;;;1.80;99.90;;;;;;5092159;28;19928;-70
2021/01/10 03:52:58;;;;;;;;;;;1.80;99.90;;;;;;5092495;28;19924;-70
2021/01/10 03:55:24;;;;;;;;;;;1.80;99.90;;;;;;5092117;28;20373;-70
2021/01/10 03:57:50;;;;;;;;;;;1.80;99.90;;;;;;5092554;28;19928;-70
2021/01/10 04:00:16;;;;;;;;;;;1.80;99.90;;;;;;5092102;28;19932;-70
2021/01/10 04:02:42;;;;;;;;;;;1.80;99.90;;;;;;5092617;28;19947;-70
2021/01/10 04:05:08;;;;;;;;;;;1.80;99.90;;;;;;5092566;28;20304;-70
2021/01/10 04:07:35;;;;;;;;;;;1.80;99.90;;;;;;5092527;28;19928;-70
2021/01/10 04:10:01;;;;;;;;;;;1.80;99.90;;;;;;5082265;28;19928;-70
2021/01/10 04:12:27;;;;;;;;;;;1.90;99.90;;;;;;5072301;28;19932;-70
2021/01/10 04:14:55;;;;;;;;;;;1.90;99.90;;;;;;5072056;28;19925;-70
2021/01/10 04:17:22;;;;;;;;;;;1.90;99.90;;;;;;5091024;28;20334;-70
2021/01/10 04:19:48;;;;;;;;;;;1.90;99.90;;;;;;5092144;28;19931;-70
2021/01/10 04:22:14;;;;;;;;;;;1.90;99.90;;;;;;5092208;28;20296;-70
2021/01/10 04:24:40;;;;;;;;;;;1.90;99.90;;;;;;5092320;28;19924;-70
2021/01/10 04:27:06;;;;;;;;;;;2.00;99.90;;;;;;5092195;28;19933;-70
2021/01/10 04:29:32;;;;;;;;;;;2.00;99.90;;;;;;5094425;28;19932;-70
2021/01/10 04:31:58;;;;;;;;;;;2.00;99.90;;;;;;5077640;28;19978;-70
2021/01/10 04:34:24;;;;;;;;;;;2.10;99.90;;;;;;5075985;28;19925;-70
2021/01/10 04:36:50;;;;;;;;;;;2.20;99.90;;;;;;5076004;28;19928;-70
2021/01/10 04:39:16;;;;;;;;;;;2.20;99.90;;;;;;5075725;28;19931;-70
2021/01/10 04:41:44;;;;;;;;;;;2.20;99.90;;;;;;5075329;28;19924;-68
2021/01/10 04:44:10;;;;;;;;;;;2.10;99.90;;;;;;5087230;28;19928;-68
2021/01/10 04:46:37;;;;;;;;;;;2.10;99.90;;;;;;5096108;28;19947;-68
2021/01/10 04:49:03;;;;;;;;;;;2.10;99.90;;;;;;5096007;28;19928;-68
2021/01/10 04:51:29;;;;;;;;;;;2.10;99.90;;;;;;5095412;28;20033;-68
2021/01/10 04:53:57;;;;;;;;;;;2.10;99.90;;;;;;5095865;28;19932;-68
2021/01/10 04:56:27;;;;;;;;;;;2.10;99.90;;;;;;5095599;28;19963;-68
2021/01/10 04:58:55;;;;;;;;;;;2.10;99.90;;;;;;5095535;28;19924;-68
2021/01/10 05:01:23;;;;;;;;;;;2.10;99.90;;;;;;5095408;28;19940;-68
2021/01/10 05:03:49;;;;;;;;;;;2.10;99.90;;;;;;5095755;28;19924;-68
2021/01/10 05:06:15;;;;;;;;;;;2.00;99.90;;;;;;5095647;28;19931;-68
2021/01/10 05:08:42;;;;;;;;;;;2.00;99.90;;;;;;5095507;28;19928;-68
2021/01/10 05:11:07;;;;;;;;;;;2.00;99.90;;;;;;5089351;28;20305;-68
2021/01/10 05:13:33;;;;;;;;;;;1.90;99.90;;;;;;5075397;28;19924;-68
2021/01/10 05:16:00;;;;;;;;;;;1.90;99.90;;;;;;5075102;28;19931;-68
2021/01/10 05:18:26;;;;;;;;;;;1.80;99.90;;;;;;5075119;28;20389;-69
2021/01/10 05:20:53;;;;;;;;;;;1.80;99.90;;;;;;5074606;28;20373;-68
2021/01/10 05:23:21;;;;;;;;;;;1.70;99.90;;;;;;5075107;28;19924;-68
2021/01/10 05:25:48;;;;;;;;;;;1.80;99.90;;;;;;5075052;28;19928;-68
2021/01/10 05:28:17;;;;;;;;;;;1.80;99.90;;;;;;5075011;28;19924;-68
2021/01/10 05:30:43;;;;;;;;;;;1.80;99.90;;;;;;5074569;28;19968;-68
2021/01/10 05:33:10;;;;;;;;;;;1.80;99.90;;;;;;5074883;28;19925;-68
2021/01/10 05:35:48;;;;;;;;;;;1.80;99.90;;;;;;5074653;28;20407;-68
2021/01/10 05:38:24;;;;;;;;;;;1.80;99.90;;;;;;5075059;28;19928;-68
2021/01/10 05:40:51;;;;;;;;;;;1.80;99.90;;;;;;5094276;28;19924;-69
2021/01/10 05:43:17;;;;;;;;;;;1.70;99.90;;;;;;5094914;28;19932;-69
2021/01/10 05:45:43;;;;;;;;;;;1.60;99.90;;;;;;5094765;28;20017;-69
2021/01/10 05:48:11;;;;;;;;;;;1.60;99.90;;;;;;5094788;28;20391;-69
2021/01/10 05:50:40;;;;;;;;;;;1.50;99.90;;;;;;5094158;28;20021;-69
2021/01/10 05:53:13;;;;;;;;;;;1.50;99.90;;;;;;5092817;28;20274;-69
2021/01/10 05:55:50;;;;;;;;;;;1.60;99.90;;;;;;5074430;28;19936;-69
2021/01/10 05:58:16;;;;;;;;;;;1.60;99.90;;;;;;5074484;28;19924;-69
2021/01/10 06:00:42;;;;;;;;;;;1.50;99.90;;;;;;5074023;28;20274;-69
2021/01/10 06:03:09;;;;;;;;;;;2.00;99.90;;;;;;5074098;28;20305;-69
2021/01/10 06:05:36;;;;;;;;;;;1.40;99.90;;;;;;5074370;28;19925;-69
2021/01/10 06:08:02;;;;;;;;;;;1.40;99.90;;;;;;5092287;28;19924;-69
2021/01/10 06:10:29;;;;;;;;;;;1.20;99.90;;;;;;5094126;28;19973;-69
2021/01/10 06:13:01;;;;;;;;;;;1.10;99.90;;;;;;5094270;28;19924;-69
2021/01/10 06:15:30;;;;;;;;;;;1.00;99.90;;;;;;5093807;28;19924;-69
2021/01/10 06:17:59;;;;;;;;;;;0.80;99.90;;;;;;5094381;28;19935;-69
2021/01/10 06:20:26;;;;;;;;;;;0.90;99.90;;;;;;5093675;28;19924;-69
2021/01/10 06:22:53;;;;;;;;;;;0.80;99.90;;;;;;5094022;28;19924;-69
2021/01/10 06:25:21;;;;;;;;;;;0.80;99.90;;;;;;5093983;28;19925;-69
2021/01/10 06:27:47;;;;;;;;;;;0.80;99.90;;;;;;5094099;28;19924;-69
2021/01/10 06:30:16;;;;;;;;;;;0.80;99.90;;;;;;5093623;28;20427;-69
2021/01/10 06:32:44;;;;;;;;;;;0.70;99.90;;;;;;5094063;28;20304;-69
2021/01/10 06:35:11;;;;;;;;;;;0.70;99.90;;;;;;5080255;28;19924;-69
2021/01/10 06:37:40;;;;;;;;;;;0.70;99.90;;;;;;5073608;28;19925;-69
2021/01/10 06:40:09;;;;;;;;;;;0.60;99.90;;;;;;5073253;28;19958;-69
2021/01/10 06:42:37;;;;;;;;;;;0.50;99.90;;;;;;5073290;28;19928;-69
2021/01/10 06:45:04;;;;;;;;;;;0.50;99.90;;;;;;5073507;28;19924;-69
2021/01/10 06:47:30;;;;;;;;;;;0.40;99.90;;;;;;5082572;28;20416;-69
2021/01/10 06:49:56;;;;;;;;;;;0.40;99.90;;;;;;5093276;28;19924;-69
2021/01/10 06:52:23;;;;;;;;;;;0.30;99.90;;;;;;5092708;28;20380;-69
2021/01/10 06:54:50;;;;;;;;;;;0.30;99.90;;;;;;5093403;28;20312;-69
2021/01/10 06:57:17;;;;;;;;;;;0.30;99.90;;;;;;5093384;28;19924;-69
2021/01/10 06:59:59;;;;;;;;;;;0.30;99.90;;;;;;5093546;28;19924;-69
2021/01/10 07:02:26;;;;;;;;;;;0.10;99.90;;;;;;5092906;28;20416;-69
2021/01/10 07:04:58;;;;;;;;;;;0.10;99.90;;;;;;5093191;28;19928;-69
2021/01/10 07:07:31;;;;;;;;;;;0.00;99.90;;;;;;5093186;28;19969;-69
2021/01/10 07:09:57;;;;;;;;;;;0.00;99.90;;;;;;5092765;28;20289;-69
2021/01/10 07:12:24;;;;;;;;;;;-0.10;99.90;;;;;;5093231;28;20273;-69
2021/01/10 07:14:50;;;;;;;;;;;-0.10;99.90;;;;;;5087247;28;19932;-69
2021/01/10 07:17:16;;;;;;;;;;;-0.10;99.90;;;;;;5072923;28;19924;-70
2021/01/10 07:19:44;;;;;;;;;;;-0.10;99.90;;;;;;5072686;28;19978;-69
2021/01/10 07:22:23;;;;;;;;;;;0.00;99.90;;;;;;5072541;28;19924;-70
2021/01/10 07:24:49;;;;;;;;;;;0.00;99.90;;;;;;5072938;28;19931;-70
2021/01/10 07:27:27;;;;;;;;;;;0.10;99.90;;;;;;5072753;28;20301;-69
2021/01/10 07:29:53;;;;;;;;;;;0.20;99.90;;;;;;5072346;28;20037;-70
2021/01/10 07:32:31;;;;;;;;;;;0.20;99.90;;;;;;5072625;28;19932;-69
2021/01/10 07:35:01;;;;;;;;;;;0.20;99.90;;;;;;5072490;28;19928;-69
2021/01/10 07:37:28;;;;;;;;;;;0.30;99.90;;;;;;5072361;28;20337;-69
2021/01/10 07:39:54;;;;;;;;;;;0.30;99.90;;;;;;5072221;28;19947;-69
2021/01/10 07:42:21;;;;;;;;;;;0.30;99.90;;;;;;5076379;28;19970;-69
2021/01/10 07:44:48;;;;;;;;;;;0.40;99.90;;;;;;5092610;28;19997;-69
2021/01/10 07:47:14;;;;;;;;;;;0.40;99.90;;;;;;5092527;28;19931;-69
2021/01/10 07:49:51;;;;;;;;;;;0.50;99.90;;;;;;5092722;28;19977;-69
2021/01/10 07:52:17;;;;;;;;;;;0.50;99.90;;;;;;5092435;28;20412;-70
2021/01/10 07:54:53;;;;;;;;;;;0.40;99.90;;;;;;5092167;28;20308;-69
2021/01/10 07:57:29;;;;;;;;;;;0.60;99.90;;;;;;5092664;28;19931;-69
2021/01/10 08:00:16;;;;;;;;;;;0.60;99.90;;;;;;5091910;28;20339;-68
2021/01/10 08:02:46;;;;;;;;;;;0.60;99.90;;;;;;5094411;28;19954;-70
2021/01/10 08:05:14;;;;;;;;;;;0.70;99.90;;;;;;5099089;28;20414;-70
2021/01/10 08:07:44;;;;;;;;;;;0.80;99.90;;;;;;5099271;28;19924;-69
2021/01/10 08:10:12;;;;;;;;;;;0.80;99.90;;;;;;5098688;28;20399;-69
2021/01/10 08:12:39;;;;;;;;;;;0.90;99.90;;;;;;5099114;28;19946;-70
2021/01/10 08:15:06;;;;;;;;;;;1.00;99.90;;;;;;5089733;28;19978;-69
2021/01/10 08:17:35;;;;;;;;;;;1.10;99.90;;;;;;5078751;28;20389;-69
2021/01/10 08:20:02;;;;;;;;;;;1.10;99.90;;;;;;5078660;28;19928;-70
2021/01/10 08:22:28;;;;;;;;;;;1.20;99.90;;;;;;5078808;28;19955;-69
2021/01/10 08:24:54;;;;;;;;;;;1.20;99.90;;;;;;5078731;28;19928;-70
2021/01/10 08:27:20;;;;;;;;;;;1.30;99.90;;;;;;5078817;28;19955;-70
2021/01/10 08:29:46;;;;;;;;;;;1.30;99.90;;;;;;5078507;28;20679;-70
2021/01/10 08:32:13;;;;;;;;;;;1.30;99.90;;;;;;5078714;28;19929;-70
2021/01/10 08:34:45;;;;;;;;;;;1.40;99.90;;;;;;5078834;28;19932;-70
2021/01/10 08:37:12;;;;;;;;;;;1.50;99.90;;;;;;5078757;28;19929;-70
2021/01/10 08:39:38;;;;;;;;;;;1.50;99.90;;;;;;5078908;28;20397;-70
2021/01/10 08:42:04;;;;;;;;;;;1.60;99.90;;;;;;5081650;28;19989;-70
2021/01/10 08:44:30;;;;;;;;;;;1.60;99.90;;;;;;5098969;28;20536;-70
2021/01/10 08:46:56;;;;;;;;;;;1.60;99.90;;;;;;5098544;28;19932;-70
2021/01/10 08:49:23;;;;;;;;;;;1.60;99.90;;;;;;5098722;28;20591;-70
2021/01/10 08:51:50;;;;;;;;;;;1.70;99.90;;;;;;5098350;28;19967;-70
2021/01/10 08:54:17;;;;;;;;;;;1.70;99.90;;;;;;5099015;28;19931;-70
2021/01/10 08:56:44;;;;;;;;;;;1.80;99.90;;;;;;5098666;28;19924;-70
2021/01/10 08:59:10;;;;;;;;;;;1.80;99.90;;;;;;5098899;28;19931;-72
2021/01/10 09:01:37;;;;;;;;;;;1.90;99.90;;;;;;5098032;28;19931;-73
2021/01/10 09:04:04;;;;;;;;;;;1.90;99.90;;;;;;5098780;28;19924;-72
2021/01/10 09:06:48;;;;;;;;;;;1.90;99.90;;;;;;5098744;28;19924;-72
2021/01/10 09:09:23;;;;;;;;;;;1.90;99.90;;;;;;5098714;28;19931;-72
2021/01/10 09:11:54;;;;;;;;;;;1.90;99.90;;;;;;5078016;28;19925;-72
2021/01/10 09:14:21;;;;;;;;;;;1.90;99.90;;;;;;5076303;28;19995;-73
2021/01/10 09:16:49;;;;;;;;;;;1.90;99.90;;;;;;5074854;28;19924;-72
2021/01/10 09:19:15;;;;;;;;;;;1.90;99.90;;;;;;5075221;28;19978;-73
2021/01/10 09:21:46;;;;;;;;;;;1.90;99.90;;;;;;5074894;28;19936;-72
2021/01/10 09:24:12;;;;;;;;;;;2.00;99.90;;;;;;5076128;28;19936;-73
2021/01/10 09:26:39;;;;;;;;;;;2.00;99.90;;;;;;5095202;28;19924;-70
2021/01/10 09:29:16;;;;;;;;;;;2.00;99.90;;;;;;5095163;28;19931;-70
2021/01/10 09:31:42;;;;;;;;;;;2.00;99.90;;;;;;5094290;28;19931;-70
2021/01/10 09:34:09;;;;;;;;;;;2.00;99.90;;;;;;5095295;28;19931;-70
2021/01/10 09:36:35;;;;;;;;;;;2.10;99.90;;;;;;5095091;28;19924;-70
2021/01/10 09:39:01;;;;;;;;;;;2.10;99.90;;;;;;5088197;28;19982;-71
2021/01/10 09:41:27;;;;;;;;;;;2.00;99.90;;;;;;5090884;28;20396;-70
2021/01/10 09:43:55;;;;;;;;;;;2.00;99.90;;;;;;5077350;28;20201;-73
2021/01/10 09:46:25;;;;;;;;;;;2.00;99.90;;;;;;5079889;28;20348;-76
2021/01/10 09:48:52;;;;;;;;;;;2.00;99.90;;;;;;5092854;28;19928;-73
2021/01/10 09:51:18;;;;;;;;;;;1.90;99.90;;;;;;5092352;28;19986;-70
2021/01/10 09:53:47;;;;;;;;;;;1.90;99.90;;;;;;5094684;28;19928;-73
2021/01/10 09:56:13;;;;;;;;;;;1.90;99.90;;;;;;5088436;28;20012;-73
2021/01/10 09:58:39;;;;;;;;;;;1.90;99.90;;;;;;5081787;28;19928;-74
2021/01/10 10:01:08;;;;;;;;;;;2.00;99.90;;;;;;5086744;28;20274;-73
2021/01/10 10:03:35;;;;;;;;;;;2.00;99.90;;;;;;5085247;28;19924;-76
2021/01/10 10:06:01;;;;;;;;;;;2.10;99.90;;;;;;5093289;28;19924;-76
2021/01/10 10:08:27;;;;;;;;;;;2.00;99.90;;;;;;5094574;28;19924;-72
2021/01/10 10:10:53;;;;;;;;;;;2.00;99.90;;;;;;5075058;28;19924;-72
2021/01/10 10:13:27;;;;;;;;;;;1.90;99.90;;;;;;5077420;28;20368;-72
2021/01/10 10:15:54;;;;;;;;;;;1.80;99.90;;;;;;5094188;28;19986;-70
2021/01/10 10:18:23;;;;;;;;;;;1.90;99.90;;;;;;5081045;28;19934;-72
2021/01/10 10:20:50;;;;;;;;;;;1.90;99.90;;;;;;5073507;28;19925;-73
2021/01/10 10:23:16;;;;;;;;;;;1.90;99.90;;;;;;5092108;28;20388;-70
2021/01/10 10:25:43;;;;;;;;;;;1.90;99.90;;;;;;5093139;28;19928;-70
2021/01/10 10:28:09;;;;;;;;;;;1.80;99.90;;;;;;5093021;28;19924;-70
2021/01/10 10:30:36;;;;;;;;;;;1.80;99.90;;;;;;5091490;28;20326;-71
2021/01/10 10:33:02;;;;;;;;;;;1.80;99.90;;;;;;5073649;28;19933;-71
2021/01/10 10:35:29;;;;;;;;;;;1.90;99.90;;;;;;5073616;28;19925;-70
2021/01/10 10:37:56;;;;;;;;;;;2.00;99.90;;;;;;5074781;28;19924;-73
2021/01/10 10:40:22;;;;;;;;;;;2.00;99.90;;;;;;5084712;28;19928;-70
2021/01/10 10:42:48;;;;;;;;;;;2.00;99.90;;;;;;5093426;28;19969;-71
2021/01/10 10:45:14;;;;;;;;;;;2.00;99.90;;;;;;5093220;28;19936;-70
2021/01/10 10:47:40;;;;;;;;;;;2.20;99.90;;;;;;5078044;28;19931;-70
2021/01/10 10:50:07;;;;;;;;;;;2.30;99.90;;;;;;5072956;28;19928;-70
2021/01/10 10:52:34;;;;;;;;;;;2.30;99.90;;;;;;5073082;28;19933;-70
2021/01/10 10:55:01;;;;;;;;;;;2.40;99.90;;;;;;5073206;28;19925;-70
2021/01/10 10:57:26;;;;;;;;;;;2.40;99.90;;;;;;5073321;28;19928;-70
2021/01/10 10:59:52;;;;;;;;;;;2.50;99.90;;;;;;5072484;28;19932;-71
2021/01/10 11:02:18;;;;;;;;;;;2.50;99.90;;;;;;5073028;28;19929;-70
2021/01/10 11:04:45;;;;;;;;;;;2.50;99.90;;;;;;5073061;28;19955;-70
2021/01/10 11:07:11;;;;;;;;;;;2.60;99.90;;;;;;5072891;28;19929;-69
2021/01/10 11:09:38;;;;;;;;;;;2.70;99.90;;;;;;5072981;28;19931;-69
2021/01/10 11:12:05;;;;;;;;;;;2.80;99.90;;;;;;5072759;28;19924;-70
2021/01/10 11:14:31;;;;;;;;;;;2.80;99.90;;;;;;5079972;28;19931;-70
2021/01/10 11:16:57;;;;;;;;;;;2.80;99.90;;;;;;5083410;28;19925;-70
2021/01/10 11:19:23;;;;;;;;;;;2.70;99.90;;;;;;5072781;28;19966;-70
2021/01/10 11:21:49;;;;;;;;;;;2.70;99.90;;;;;;5072311;28;19935;-70
2021/01/10 11:24:16;;;;;;;;;;;2.70;99.90;;;;;;5072989;28;19932;-70
2021/01/10 11:26:44;;;;;;;;;;;2.60;99.90;;;;;;5072783;28;19929;-70
2021/01/10 11:29:10;;;;;;;;;;;2.60;99.90;;;;;;5072605;28;19938;-70
2021/01/10 11:31:36;;;;;;;;;;;2.60;99.90;;;;;;5072251;28;20318;-69
2021/01/10 11:34:03;;;;;;;;;;;2.80;99.90;;;;;;5072654;28;20309;-69
2021/01/10 11:36:29;;;;;;;;;;;3.20;99.90;;;;;;5072347;28;19936;-68
2021/01/10 11:38:56;;;;;;;;;;;3.50;99.90;;;;;;5089885;28;19970;-69
2021/01/10 11:41:22;;;;;;;;;;;3.70;99.90;;;;;;5072124;28;20023;-68
2021/01/10 11:43:49;;;;;;;;;;;3.80;99.90;;;;;;5072125;28;20399;-69
2021/01/10 11:46:15;;;;;;;;;;;3.70;99.90;;;;;;5073602;28;19932;-69
2021/01/10 11:48:42;;;;;;;;;;;3.60;99.90;;;;;;5072321;28;19928;-69
2021/01/10 11:51:08;;;;;;;;;;;3.50;99.90;;;;;;5071689;28;19924;-70
2021/01/10 11:53:34;;;;;;;;;;;3.50;99.90;;;;;;5072391;28;19954;-68
2021/01/10 11:56:00;;;;;;;;;;;3.80;99.90;;;;;;5091368;28;19924;-69
2021/01/10 11:58:27;;;;;;;;;;;3.90;99.90;;;;;;5092263;28;20346;-69
2021/01/10 12:00:54;;;;;;;;;;;4.60;99.90;;;;;;5091258;28;19924;-69
2021/01/10 12:03:21;;;;;;;;;;;5.90;99.90;;;;;;5092338;28;19977;-69
2021/01/10 12:05:48;;;;;;;;;;;7.20;97.90;;;;;;5082363;28;20312;-70
2021/01/10 12:08:14;;;;;;;;;;;7.80;92.70;;;;;;5072277;28;19932;-69
2021/01/10 12:10:41;;;;;;;;;;;8.10;90.90;;;;;;5071757;28;20385;-69
2021/01/10 12:13:07;;;;;;;;;;;8.70;89.40;;;;;;5072099;28;19924;-70
2021/01/10 12:15:34;;;;;;;;;;;9.00;84.60;;;;;;5073176;28;20278;-72
2021/01/10 12:18:01;;;;;;;;;;;9.10;81.50;;;;;;5071908;28;19931;-70
2021/01/10 12:20:27;;;;;;;;;;;9.00;81.40;;;;;;5071981;28;19925;-70
2021/01/10 12:22:53;;;;;;;;;;;9.80;80.40;;;;;;5072055;28;19928;-71
2021/01/10 12:25:19;;;;;;;;;;;9.90;76.40;;;;;;5072079;28;19924;-69
2021/01/10 12:27:45;;;;;;;;;;;10.00;77.60;;;;;;5076158;28;20011;-69
2021/01/10 12:30:12;;;;;;;;;;;10.40;75.30;;;;;;5091473;28;19935;-69
2021/01/10 12:32:38;;;;;;;;;;;10.90;72.60;;;;;;5091626;28;19924;-69
2021/01/10 12:35:07;;;;;;;;;;;11.00;70.90;;;;;;5092020;28;19924;-69
2021/01/10 12:37:33;;;;;;;;;;;10.90;69.70;;;;;;5091989;28;19924;-69
2021/01/10 12:39:59;;;;;;;;;;;11.10;70.10;;;;;;5091122;28;19977;-69
2021/01/10 12:42:25;;;;;;;;;;;10.90;69.00;;;;;;5091972;28;19924;-70
2021/01/10 12:44:51;;;;;;;;;;;10.90;70.50;;;;;;5091665;28;19931;-69
2021/01/10 12:47:17;;;;;;;;;;;11.20;70.40;;;;;;5090162;28;19967;-70
2021/01/10 12:49:43;;;;;;;;;;;11.50;68.00;;;;;;5092527;28;19924;-73
2021/01/10 12:52:10;;;;;;;;;;;11.40;68.20;;;;;;5095363;28;19969;-73
2021/01/10 12:54:36;;;;;;;;;;;11.20;68.00;;;;;;5086155;28;20453;-73
2021/01/10 12:57:03;;;;;;;;;;;11.40;67.10;;;;;;5075124;28;19932;-73
2021/01/10 12:59:29;;;;;;;;;;;11.80;66.80;;;;;;5087226;28;19924;-73
2021/01/10 13:01:55;;;;;;;;;;;10.80;67.10;;;;;;5094819;28;19931;-73
2021/01/10 13:04:21;;;;;;;;;;;10.80;68.30;;;;;;5091741;28;19925;-73
2021/01/10 13:06:47;;;;;;;;;;;10.00;69.00;;;;;;5095725;28;19924;-72
2021/01/10 13:09:13;;;;;;;;;;;9.10;71.80;;;;;;5095225;28;19931;-72
2021/01/10 13:11:39;;;;;;;;;;;8.30;76.00;;;;;;5094621;28;19924;-72
2021/01/10 13:14:05;;;;;;;;;;;7.60;79.00;;;;;;5080724;28;19925;-72
2021/01/10 13:16:32;;;;;;;;;;;7.00;83.70;;;;;;5074986;28;20072;-73
2021/01/10 13:18:58;;;;;;;;;;;6.30;87.80;;;;;;5075069;28;19924;-72
2021/01/10 13:21:24;;;;;;;;;;;6.20;93.30;;;;;;5074724;28;19924;-73
2021/01/10 13:23:50;;;;;;;;;;;6.10;94.70;;;;;;5074988;28;19924;-73
2021/01/10 13:26:17;;;;;;;;;;;5.70;96.40;;;;;;5074784;28;20453;-73
2021/01/10 13:28:43;;;;;;;;;;;5.10;99.90;;;;;;5074812;28;19924;-73
2021/01/10 13:31:09;;;;;;;;;;;4.80;99.90;;;;;;5078742;28;19924;-73
2021/01/10 13:33:36;;;;;;;;;;;4.60;99.90;;;;;;5095158;28;19931;-73
2021/01/10 13:36:02;;;;;;;;;;;4.60;99.90;;;;;;5094785;28;19928;-73
2021/01/10 13:38:28;;;;;;;;;;;4.30;99.90;;;;;;5094548;28;19931;-73
2021/01/10 13:40:54;;;;;;;;;;;3.80;99.90;;;;;;5092430;28;19928;-72
2021/01/10 13:43:22;;;;;;;;;;;3.50;99.90;;;;;;5094525;28;20004;-72
2021/01/10 13:45:48;;;;;;;;;;;3.30;99.90;;;;;;5094521;28;20011;-73
2021/01/10 13:48:14;;;;;;;;;;;3.20;99.90;;;;;;5074573;28;19924;-72
2021/01/10 13:50:40;;;;;;;;;;;3.10;99.90;;;;;;5074235;28;19925;-69
2021/01/10 13:53:06;;;;;;;;;;;3.10;99.90;;;;;;5084978;28;19928;-69
2021/01/10 13:55:32;;;;;;;;;;;3.00;99.90;;;;;;5092688;28;19980;-69
2021/01/10 13:57:58;;;;;;;;;;;2.90;99.90;;;;;;5107481;28;19931;-69
2021/01/10 14:00:26;;;;;;;;;;;2.80;99.90;;;;;;5114377;28;19945;-70
2021/01/10 14:02:54;;;;;;;;;;;2.80;99.90;;;;;;5114657;28;19939;-68
2021/01/10 14:05:20;;;;;;;;;;;2.70;99.90;;;;;;5114794;28;20431;-67
2021/01/10 14:07:46;;;;;;;;;;;2.60;99.90;;;;;;5114560;28;19924;-67
2021/01/10 14:10:13;;;;;;;;;;;2.60;99.90;;;;;;5097140;28;19935;-68
2021/01/10 14:12:40;;;;;;;;;;;2.50;99.90;;;;;;5093923;28;19924;-68
2021/01/10 14:15:07;;;;;;;;;;;2.50;99.90;;;;;;5094415;28;19931;-68
2021/01/10 14:17:33;;;;;;;;;;;2.50;99.90;;;;;;5093868;28;19973;-68
2021/01/10 14:19:59;;;;;;;;;;;2.30;99.90;;;;;;5093869;28;19930;-70
2021/01/10 14:22:25;;;;;;;;;;;2.20;99.90;;;;;;5093792;28;19924;-72
2021/01/10 14:24:51;;;;;;;;;;;2.20;99.90;;;;;;5094115;28;19925;-69
2021/01/10 14:27:19;;;;;;;;;;;2.20;99.90;;;;;;5093670;28;19924;-70